Hulbert, Michigan
Current Conditions -  °F | °C
As of 6:13 PM on Saturday 25 Oct 2014 (Local Time) from KERY Reporting Station
Clear Clear  
Wind Chill: 10°   Ceiling: Unl
Heat Index: 10°   Visibility: 10mi
Dew Point:   Wind: 21mph
Humidity: 49%   Direction: 290°WNW
Pressure: 29.71"   Gusts: 32mph
Location:  46.35°N, 85.15°W
Report Text: KERY 252213Z AUTO 29018G28KT 10SM CLR 10/00 A2971 RMK AO2 T01040002
Loading
Personal Weather Stations






























Interactive Weather Map
Tropical Storm Tracking
New forecast layout! Learn more

10-Day Weather Forecast

Advertisements
Track Severe Weather on mobile